createdAt,value
2023-02-01T00:04:56.134Z,100616.19
2023-02-01T00:09:57.522Z,100621.47
2023-02-01T00:14:59.583Z,100605.53
2023-02-01T00:20:00.930Z,100623.38
2023-02-01T00:25:02.262Z,100616.19
2023-02-01T00:30:04.144Z,100609.53
2023-02-01T00:35:06.041Z,100606.38
2023-02-01T00:40:08.339Z,100605.63
2023-02-01T00:45:10.444Z,100609.00
2023-02-01T00:50:12.023Z,100609.53
2023-02-01T00:55:13.438Z,100595.31
2023-02-01T01:00:15.463Z,100593.50
2023-02-01T01:05:17.107Z,100607.25
2023-02-01T01:10:18.601Z,100608.44
2023-02-01T01:15:20.072Z,100601.59
2023-02-01T01:20:22.837Z,100585.56
2023-02-01T01:25:24.351Z,100587.13
2023-02-01T01:30:25.740Z,100589.66
2023-02-01T01:35:27.216Z,100580.81
2023-02-01T01:40:30.064Z,100586.94
2023-02-01T01:45:34.069Z,100585.50
2023-02-01T01:50:49.166Z,100573.59
2023-02-01T01:55:53.133Z,100575.19
2023-02-01T02:00:55.151Z,100587.56
2023-02-01T02:05:59.824Z,100571.03
2023-02-01T02:11:01.642Z,100559.16
2023-02-01T02:16:35.341Z,100538.63
2023-02-01T02:21:55.552Z,100537.59
2023-02-01T02:27:34.569Z,100543.38
2023-02-01T02:33:07.720Z,100565.56
2023-02-01T02:38:38.450Z,100570.50
2023-02-01T02:44:12.622Z,100568.03
2023-02-01T02:49:30.069Z,100577.47
2023-02-01T02:54:48.237Z,100567.25
2023-02-01T03:00:08.584Z,100526.34
2023-02-01T03:05:10.149Z,100558.75
2023-02-01T03:10:21.329Z,100553.94
2023-02-01T03:15:30.738Z,100544.25
2023-02-01T03:20:33.449Z,100540.81
2023-02-01T03:25:35.571Z,100544.34
2023-02-01T03:30:40.204Z,100536.50
2023-02-01T03:35:50.817Z,100535.53
2023-02-01T03:40:58.743Z,100527.34
2023-02-01T03:46:06.323Z,100523.94
2023-02-01T03:51:10.430Z,100529.31
2023-02-01T03:56:12.563Z,100527.53
2023-02-01T04:01:13.993Z,100517.03
2023-02-01T04:06:15.302Z,100510.34
2023-02-01T04:11:16.922Z,100504.19
2023-02-01T04:16:18.432Z,100519.00
2023-02-01T04:21:19.868Z,100523.09
2023-02-01T04:26:22.556Z,100515.44
2023-02-01T04:31:26.698Z,100511.00
2023-02-01T04:36:28.180Z,100521.97
2023-02-01T04:41:29.967Z,100535.00
2023-02-01T04:46:31.501Z,100524.59
2023-02-01T04:51:33.399Z,100525.78
2023-02-01T04:56:38.301Z,100479.78
2023-02-01T05:01:39.751Z,100501.41
2023-02-01T05:06:41.140Z,100517.38
2023-02-01T05:12:01.291Z,100518.81
2023-02-01T05:17:02.704Z,100512.56
2023-02-01T05:22:04.041Z,100506.53
2023-02-01T05:27:05.512Z,100502.44
2023-02-01T05:32:21.039Z,100514.72
2023-02-01T05:37:23.621Z,100520.69
2023-02-01T05:42:24.995Z,100518.81
2023-02-01T05:47:26.638Z,100508.81
2023-02-01T05:52:27.959Z,100505.16
2023-02-01T05:57:30.111Z,100499.16
2023-02-01T06:02:31.940Z,100481.81
2023-02-01T06:07:33.487Z,100477.56
2023-02-01T06:12:34.827Z,100485.84
2023-02-01T06:17:36.631Z,100491.94
2023-02-01T06:22:38.223Z,100469.91
2023-02-01T06:27:39.645Z,100483.56
2023-02-01T06:32:41.387Z,100488.75
2023-02-01T06:37:43.012Z,100482.13
2023-02-01T06:42:44.372Z,100481.00
2023-02-01T06:47:45.833Z,100489.75
2023-02-01T06:52:47.128Z,100484.56
2023-02-01T06:57:48.437Z,100492.94
2023-02-01T07:02:51.779Z,100505.28
2023-02-01T07:07:53.128Z,100496.50
2023-02-01T07:12:58.354Z,100489.34
2023-02-01T07:17:59.795Z,100481.44
2023-02-01T07:23:01.173Z,100475.78
2023-02-01T07:28:02.490Z,100489.56
2023-02-01T07:33:03.992Z,100482.25
2023-02-01T07:38:05.287Z,100504.97
2023-02-01T07:43:08.824Z,100516.75
2023-02-01T07:48:10.265Z,100534.72
2023-02-01T07:53:11.739Z,100536.25
2023-02-01T07:58:13.042Z,100548.72
2023-02-01T08:03:15.974Z,100520.47
2023-02-01T08:08:18.619Z,100530.69
2023-02-01T08:13:19.953Z,100541.06
2023-02-01T08:18:21.843Z,100550.44
2023-02-01T08:23:24.245Z,100551.19
2023-02-01T08:28:25.682Z,100554.22
2023-02-01T08:33:26.977Z,100555.38
2023-02-01T08:38:28.597Z,100565.59
2023-02-01T08:43:29.918Z,100572.53
2023-02-01T08:48:32.135Z,100564.88
2023-02-01T08:53:33.815Z,100566.50
2023-02-01T08:58:35.475Z,100571.78
2023-02-01T09:03:37.095Z,100562.75
2023-02-01T09:08:40.084Z,100557.94
2023-02-01T09:13:43.901Z,100572.19
2023-02-01T09:18:56.070Z,100570.88
2023-02-01T09:24:07.751Z,100574.63
2023-02-01T09:29:12.081Z,100595.63
2023-02-01T09:34:13.474Z,100600.91
2023-02-01T09:39:14.881Z,100617.19
2023-02-01T09:44:35.565Z,100625.88
2023-02-01T09:49:51.630Z,100631.19
2023-02-01T09:55:01.732Z,100635.00
2023-02-01T10:00:16.291Z,100617.78
2023-02-01T10:05:30.050Z,100625.53
2023-02-01T10:10:40.794Z,100610.63
2023-02-01T10:16:17.432Z,100623.38
2023-02-01T10:21:44.722Z,100622.44
2023-02-01T10:26:55.948Z,100619.34
2023-02-01T10:31:58.506Z,100597.97
2023-02-01T10:37:19.885Z,100579.28
2023-02-01T10:42:25.348Z,100592.22
2023-02-01T10:47:26.781Z,100549.28
2023-02-01T10:52:35.713Z,100576.53
2023-02-01T10:57:37.352Z,100573.78
2023-02-01T11:02:38.700Z,100573.38
2023-02-01T11:07:46.992Z,100568.28
2023-02-01T11:12:54.875Z,100570.56
2023-02-01T11:17:57.464Z,100573.50
2023-02-01T11:22:59.297Z,100535.59
2023-02-01T11:28:00.687Z,100554.84
2023-02-01T11:33:06.298Z,100555.72
2023-02-01T11:38:23.638Z,100556.09
2023-02-01T11:43:28.230Z,100552.13
2023-02-01T11:48:34.351Z,100543.06
2023-02-01T11:53:47.375Z,100549.00
2023-02-01T11:59:26.373Z,100544.38
2023-02-01T12:04:58.455Z,100530.94
2023-02-01T12:10:19.558Z,100522.53
2023-02-01T12:15:48.204Z,100523.84
2023-02-01T12:21:11.558Z,100524.63
2023-02-01T12:26:12.835Z,100526.59
2023-02-01T12:31:42.092Z,100525.19
2023-02-01T12:36:46.553Z,100520.63
2023-02-01T12:42:14.578Z,100521.59
2023-02-01T12:47:30.472Z,100502.19
2023-02-01T12:52:36.337Z,100501.00
2023-02-01T12:57:46.516Z,100491.06
2023-02-01T13:03:00.223Z,100498.06
2023-02-01T13:08:13.195Z,100472.81
2023-02-01T13:13:17.554Z,100473.34
2023-02-01T13:18:22.307Z,100478.47
2023-02-01T13:23:31.633Z,100472.88
2023-02-01T13:28:50.492Z,100465.81
2023-02-01T13:34:40.353Z,100475.25
2023-02-01T13:40:09.423Z,100465.41
2023-02-01T13:45:17.193Z,100457.81
2023-02-01T13:50:18.481Z,100458.19
2023-02-01T13:55:23.183Z,100456.88
2023-02-01T14:00:38.814Z,100453.19
2023-02-01T14:05:40.396Z,100449.28
2023-02-01T14:10:53.906Z,100431.69
2023-02-01T14:16:04.480Z,100433.94
2023-02-01T14:21:31.538Z,100422.84
2023-02-01T14:26:35.751Z,100419.03
2023-02-01T14:31:55.868Z,100416.56
2023-02-01T14:37:02.565Z,100422.06
2023-02-01T14:42:16.261Z,100411.94
2023-02-01T14:47:30.098Z,100411.53
2023-02-01T14:52:44.800Z,100401.66
2023-02-01T14:57:50.445Z,100418.13
2023-02-01T15:02:53.877Z,100369.94
2023-02-01T15:07:55.302Z,100416.50
2023-02-01T15:12:56.651Z,100416.88
2023-02-01T15:18:01.185Z,100415.56
2023-02-01T15:23:05.401Z,100413.66
2023-02-01T15:28:14.218Z,100406.28
2023-02-01T15:33:17.210Z,100413.19
2023-02-01T15:38:32.307Z,100398.53
2023-02-01T15:43:44.083Z,100408.47
2023-02-01T15:48:50.027Z,100421.44
2023-02-01T15:54:07.334Z,100435.53
2023-02-01T15:59:18.443Z,100427.78
2023-02-01T16:04:30.641Z,100437.09
2023-02-01T16:09:39.748Z,100449.19
2023-02-01T16:14:41.456Z,100450.97
2023-02-01T16:19:42.923Z,100437.09
2023-02-01T16:24:44.346Z,100447.34
2023-02-01T16:29:45.808Z,100444.31
2023-02-01T16:34:47.856Z,100444.69
2023-02-01T16:39:49.365Z,100434.56
2023-02-01T16:44:51.099Z,100431.94
2023-02-01T16:49:52.664Z,100435.78
2023-02-01T16:54:54.185Z,100441.84
2023-02-01T16:59:55.528Z,100434.09
2023-02-01T17:04:56.957Z,100410.50
2023-02-01T17:09:58.355Z,100416.75
2023-02-01T17:15:01.231Z,100412.59
2023-02-01T17:20:04.181Z,100429.34
2023-02-01T17:25:14.480Z,100435.69
2023-02-01T17:30:16.219Z,100439.47
2023-02-01T17:35:24.599Z,100439.28
2023-02-01T17:40:28.154Z,100436.91
2023-02-01T17:45:36.974Z,100450.84
2023-02-01T17:50:38.992Z,100468.31
2023-02-01T17:55:44.280Z,100455.16
2023-02-01T18:00:47.913Z,100456.88
2023-02-01T18:05:53.693Z,100468.78
2023-02-01T18:11:00.817Z,100468.25
2023-02-01T18:16:03.659Z,100468.53
2023-02-01T18:21:05.637Z,100473.47
2023-02-01T18:26:11.372Z,100470.50
2023-02-01T18:31:34.102Z,100466.78
2023-02-01T18:36:35.495Z,100474.63
2023-02-01T18:41:36.996Z,100469.22
2023-02-01T18:46:38.374Z,100473.28
2023-02-01T18:51:39.856Z,100479.81
2023-02-01T18:56:42.860Z,100486.16
2023-02-01T19:01:44.891Z,100491.25
2023-02-01T19:06:46.631Z,100493.53
2023-02-01T19:11:47.973Z,100502.88
2023-02-01T19:16:50.147Z,100483.31
2023-02-01T19:21:52.424Z,100488.69
2023-02-01T19:26:54.021Z,100484.16
2023-02-01T19:31:55.466Z,100486.41
2023-02-01T19:36:56.846Z,100486.41
2023-02-01T19:41:59.180Z,100490.13
2023-02-01T19:47:00.830Z,100491.06
2023-02-01T19:52:02.925Z,100485.09
2023-02-01T19:57:04.346Z,100507.03
2023-02-01T20:02:05.016Z,100509.88
2023-02-01T20:07:06.362Z,100506.47
2023-02-01T20:12:11.420Z,100503.16
2023-02-01T20:17:15.152Z,100491.50
2023-02-01T20:22:16.889Z,100490.56
2023-02-01T20:27:19.191Z,100481.88
2023-02-01T20:32:20.708Z,100483.94
2023-02-01T20:37:22.164Z,100488.13
2023-02-01T20:42:23.580Z,100492.81
2023-02-01T20:47:24.945Z,100503.22
2023-02-01T20:52:26.287Z,100496.06
2023-02-01T20:57:27.650Z,100496.25
2023-02-01T21:02:29.037Z,100491.78
2023-02-01T21:07:30.360Z,100493.59
2023-02-01T21:12:31.918Z,100491.16
2023-02-01T21:17:33.704Z,100480.66
2023-02-01T21:22:35.026Z,100479.88
2023-02-01T21:27:36.800Z,100494.53
2023-02-01T21:32:38.237Z,100502.78
2023-02-01T21:37:39.541Z,100491.50
2023-02-01T21:42:42.676Z,100493.78
2023-02-01T21:47:44.300Z,100513.84
2023-02-01T21:52:46.477Z,100508.56
2023-02-01T21:57:47.811Z,100509.09
2023-02-01T22:02:49.201Z,100509.88
2023-02-01T22:07:50.651Z,100515.25
2023-02-01T22:12:51.940Z,100511.56
2023-02-01T22:17:53.877Z,100533.72
2023-02-01T22:22:56.437Z,100530.88
2023-02-01T22:28:30.486Z,100526.13
2023-02-01T22:33:19.586Z,100525.00
2023-02-01T22:38:21.004Z,100522.91
2023-02-01T22:43:23.076Z,100517.03
2023-02-01T22:48:24.483Z,100536.41
2023-02-01T22:53:26.768Z,100540.31
2023-02-01T22:58:28.571Z,100545.59
2023-02-01T23:03:30.075Z,100545.59
2023-02-01T23:08:33.933Z,100540.59
2023-02-01T23:13:36.956Z,100536.34
2023-02-01T23:18:39.089Z,100535.88
2023-02-01T23:23:45.028Z,100536.34
2023-02-01T23:28:47.076Z,100530.28
2023-02-01T23:33:49.384Z,100528.88
2023-02-01T23:38:51.403Z,100497.22
2023-02-01T23:43:58.888Z,100530.28
2023-02-01T23:49:01.585Z,100526.03
2023-02-01T23:54:03.748Z,100543.34
2023-02-01T23:59:09.780Z,100544.47
